sensor_id;sensor_type;location;lat;lon;timestamp;P1;durP1;ratioP1;P2;durP2;ratioP2
39676;SDS011;27789;50.840;4.386;2022-12-07T00:00:55;24.10;;;15.82;;
39676;SDS011;27789;50.840;4.386;2022-12-07T00:03:29;29.02;;;15.27;;
39676;SDS011;27789;50.840;4.386;2022-12-07T00:05:57;21.55;;;14.65;;
39676;SDS011;27789;50.840;4.386;2022-12-07T00:08:23;27.73;;;15.90;;
39676;SDS011;27789;50.840;4.386;2022-12-07T00:10:49;27.02;;;14.90;;
39676;SDS011;27789;50.840;4.386;2022-12-07T00:13:14;34.63;;;15.48;;
39676;SDS011;27789;50.840;4.386;2022-12-07T00:15:40;21.90;;;15.25;;
39676;SDS011;27789;50.840;4.386;2022-12-07T00:18:06;23.45;;;16.23;;
39676;SDS011;27789;50.840;4.386;2022-12-07T00:20:31;31.20;;;17.80;;
39676;SDS011;27789;50.840;4.386;2022-12-07T00:22:58;28.58;;;16.50;;
39676;SDS011;27789;50.840;4.386;2022-12-07T00:25:23;27.98;;;17.15;;
39676;SDS011;27789;50.840;4.386;2022-12-07T00:27:49;23.63;;;17.15;;
39676;SDS011;27789;50.840;4.386;2022-12-07T00:30:15;26.10;;;17.05;;
39676;SDS011;27789;50.840;4.386;2022-12-07T00:32:40;30.83;;;19.13;;
39676;SDS011;27789;50.840;4.386;2022-12-07T00:35:06;32.25;;;18.77;;
39676;SDS011;27789;50.840;4.386;2022-12-07T00:37:32;32.53;;;19.50;;
39676;SDS011;27789;50.840;4.386;2022-12-07T00:39:57;34.80;;;20.75;;
39676;SDS011;27789;50.840;4.386;2022-12-07T00:42:23;30.60;;;17.90;;
39676;SDS011;27789;50.840;4.386;2022-12-07T00:44:49;30.45;;;19.42;;
39676;SDS011;27789;50.840;4.386;2022-12-07T00:47:14;28.60;;;18.92;;
39676;SDS011;27789;50.840;4.386;2022-12-07T00:49:40;30.15;;;19.60;;
39676;SDS011;27789;50.840;4.386;2022-12-07T00:52:05;30.90;;;19.27;;
39676;SDS011;27789;50.840;4.386;2022-12-07T00:54:31;32.47;;;19.75;;
39676;SDS011;27789;50.840;4.386;2022-12-07T00:56:56;29.30;;;19.27;;
39676;SDS011;27789;50.840;4.386;2022-12-07T00:59:22;28.55;;;18.05;;
39676;SDS011;27789;50.840;4.386;2022-12-07T01:01:48;28.85;;;19.50;;
39676;SDS011;27789;50.840;4.386;2022-12-07T01:04:13;31.60;;;18.55;;
39676;SDS011;27789;50.840;4.386;2022-12-07T01:06:39;46.67;;;20.40;;
39676;SDS011;27789;50.840;4.386;2022-12-07T01:09:04;32.78;;;19.90;;
39676;SDS011;27789;50.840;4.386;2022-12-07T01:11:31;27.70;;;18.10;;
39676;SDS011;27789;50.840;4.386;2022-12-07T01:13:57;31.13;;;19.23;;
39676;SDS011;27789;50.840;4.386;2022-12-07T01:16:24;29.42;;;17.52;;
39676;SDS011;27789;50.840;4.386;2022-12-07T01:18:52;30.17;;;18.75;;
39676;SDS011;27789;50.840;4.386;2022-12-07T01:21:23;30.70;;;18.40;;
39676;SDS011;27789;50.840;4.386;2022-12-07T01:23:53;33.40;;;17.97;;
39676;SDS011;27789;50.840;4.386;2022-12-07T01:26:20;27.27;;;17.85;;
39676;SDS011;27789;50.840;4.386;2022-12-07T01:28:48;25.05;;;17.13;;
39676;SDS011;27789;50.840;4.386;2022-12-07T01:31:15;30.10;;;17.70;;
39676;SDS011;27789;50.840;4.386;2022-12-07T01:33:43;25.00;;;16.77;;
39676;SDS011;27789;50.840;4.386;2022-12-07T01:36:15;26.45;;;17.35;;
39676;SDS011;27789;50.840;4.386;2022-12-07T01:38:43;26.85;;;18.27;;
39676;SDS011;27789;50.840;4.386;2022-12-07T01:41:10;28.27;;;16.63;;
39676;SDS011;27789;50.840;4.386;2022-12-07T01:43:36;27.75;;;16.27;;
39676;SDS011;27789;50.840;4.386;2022-12-07T01:46:04;27.80;;;17.45;;
39676;SDS011;27789;50.840;4.386;2022-12-07T01:51:08;33.53;;;17.38;;
39676;SDS011;27789;50.840;4.386;2022-12-07T01:53:37;27.08;;;17.83;;
39676;SDS011;27789;50.840;4.386;2022-12-07T01:56:07;25.98;;;17.27;;
39676;SDS011;27789;50.840;4.386;2022-12-07T01:58:35;24.58;;;16.02;;
39676;SDS011;27789;50.840;4.386;2022-12-07T02:01:02;27.98;;;17.70;;
39676;SDS011;27789;50.840;4.386;2022-12-07T02:03:32;26.08;;;17.20;;
39676;SDS011;27789;50.840;4.386;2022-12-07T02:06:03;24.60;;;16.20;;
39676;SDS011;27789;50.840;4.386;2022-12-07T02:08:30;20.83;;;15.85;;
39676;SDS011;27789;50.840;4.386;2022-12-07T02:10:57;22.17;;;14.95;;
39676;SDS011;27789;50.840;4.386;2022-12-07T02:13:23;26.13;;;16.30;;
39676;SDS011;27789;50.840;4.386;2022-12-07T02:18:48;25.27;;;15.30;;
39676;SDS011;27789;50.840;4.386;2022-12-07T02:21:20;27.70;;;17.58;;
39676;SDS011;27789;50.840;4.386;2022-12-07T02:31:56;25.38;;;15.30;;
39676;SDS011;27789;50.840;4.386;2022-12-07T02:37:17;23.63;;;15.35;;
39676;SDS011;27789;50.840;4.386;2022-12-07T02:39:58;21.88;;;15.07;;
39676;SDS011;27789;50.840;4.386;2022-12-07T02:42:40;17.20;;;13.23;;
39676;SDS011;27789;50.840;4.386;2022-12-07T02:45:10;24.40;;;12.55;;
39676;SDS011;27789;50.840;4.386;2022-12-07T02:47:40;21.55;;;14.48;;
39676;SDS011;27789;50.840;4.386;2022-12-07T02:50:06;26.70;;;15.10;;
39676;SDS011;27789;50.840;4.386;2022-12-07T02:52:33;21.30;;;14.65;;
39676;SDS011;27789;50.840;4.386;2022-12-07T02:54:58;27.65;;;13.80;;
39676;SDS011;27789;50.840;4.386;2022-12-07T03:00:16;21.63;;;15.13;;
39676;SDS011;27789;50.840;4.386;2022-12-07T03:02:52;20.70;;;14.70;;
39676;SDS011;27789;50.840;4.386;2022-12-07T03:18:36;18.70;;;12.63;;
39676;SDS011;27789;50.840;4.386;2022-12-07T03:21:11;21.52;;;13.05;;
39676;SDS011;27789;50.840;4.386;2022-12-07T03:23:40;18.67;;;13.30;;
39676;SDS011;27789;50.840;4.386;2022-12-07T03:26:09;22.30;;;13.63;;
39676;SDS011;27789;50.840;4.386;2022-12-07T03:28:39;19.50;;;12.90;;
39676;SDS011;27789;50.840;4.386;2022-12-07T03:31:13;19.92;;;12.38;;
39676;SDS011;27789;50.840;4.386;2022-12-07T03:36:25;21.92;;;13.27;;
39676;SDS011;27789;50.840;4.386;2022-12-07T03:41:33;17.17;;;12.30;;
39676;SDS011;27789;50.840;4.386;2022-12-07T03:44:02;21.88;;;12.93;;
39676;SDS011;27789;50.840;4.386;2022-12-07T03:54:15;19.50;;;12.32;;
39676;SDS011;27789;50.840;4.386;2022-12-07T03:56:51;19.30;;;11.30;;
39676;SDS011;27789;50.840;4.386;2022-12-07T03:59:18;23.52;;;12.90;;
39676;SDS011;27789;50.840;4.386;2022-12-07T04:01:45;24.23;;;13.05;;
39676;SDS011;27789;50.840;4.386;2022-12-07T04:04:21;23.55;;;12.57;;
39676;SDS011;27789;50.840;4.386;2022-12-07T04:06:49;20.13;;;12.55;;
39676;SDS011;27789;50.840;4.386;2022-12-07T04:09:15;14.77;;;11.15;;
39676;SDS011;27789;50.840;4.386;2022-12-07T04:11:41;19.17;;;11.90;;
39676;SDS011;27789;50.840;4.386;2022-12-07T04:14:07;17.63;;;11.57;;
39676;SDS011;27789;50.840;4.386;2022-12-07T04:16:44;17.17;;;11.32;;
39676;SDS011;27789;50.840;4.386;2022-12-07T04:19:11;20.80;;;11.63;;
39676;SDS011;27789;50.840;4.386;2022-12-07T04:21:37;22.08;;;12.20;;
39676;SDS011;27789;50.840;4.386;2022-12-07T04:24:04;21.08;;;12.23;;
39676;SDS011;27789;50.840;4.386;2022-12-07T04:26:29;21.15;;;12.35;;
39676;SDS011;27789;50.840;4.386;2022-12-07T04:28:55;21.70;;;11.48;;
39676;SDS011;27789;50.840;4.386;2022-12-07T04:31:21;18.70;;;12.15;;
39676;SDS011;27789;50.840;4.386;2022-12-07T04:33:46;18.35;;;12.52;;
39676;SDS011;27789;50.840;4.386;2022-12-07T04:36:12;20.35;;;12.40;;
39676;SDS011;27789;50.840;4.386;2022-12-07T04:38:38;20.75;;;13.70;;
39676;SDS011;27789;50.840;4.386;2022-12-07T04:41:04;30.92;;;14.93;;
39676;SDS011;27789;50.840;4.386;2022-12-07T04:43:33;24.88;;;14.60;;
39676;SDS011;27789;50.840;4.386;2022-12-07T04:45:59;21.50;;;14.20;;
39676;SDS011;27789;50.840;4.386;2022-12-07T04:48:25;23.85;;;13.85;;
39676;SDS011;27789;50.840;4.386;2022-12-07T04:50:50;23.15;;;15.25;;
39676;SDS011;27789;50.840;4.386;2022-12-07T04:53:16;23.80;;;14.82;;
39676;SDS011;27789;50.840;4.386;2022-12-07T04:55:42;22.58;;;15.80;;
39676;SDS011;27789;50.840;4.386;2022-12-07T04:58:08;22.15;;;15.27;;
39676;SDS011;27789;50.840;4.386;2022-12-07T05:00:34;25.42;;;16.05;;
39676;SDS011;27789;50.840;4.386;2022-12-07T05:02:59;27.23;;;15.88;;
39676;SDS011;27789;50.840;4.386;2022-12-07T05:05:25;24.42;;;16.42;;
39676;SDS011;27789;50.840;4.386;2022-12-07T05:07:51;19.45;;;14.07;;
39676;SDS011;27789;50.840;4.386;2022-12-07T05:10:16;26.38;;;15.02;;
39676;SDS011;27789;50.840;4.386;2022-12-07T05:12:42;26.38;;;15.32;;
39676;SDS011;27789;50.840;4.386;2022-12-07T05:15:08;28.35;;;15.32;;
39676;SDS011;27789;50.840;4.386;2022-12-07T05:17:34;22.77;;;14.88;;
39676;SDS011;27789;50.840;4.386;2022-12-07T05:20:00;21.67;;;14.52;;
39676;SDS011;27789;50.840;4.386;2022-12-07T05:22:25;21.15;;;13.73;;
39676;SDS011;27789;50.840;4.386;2022-12-07T05:24:53;22.90;;;14.70;;
39676;SDS011;27789;50.840;4.386;2022-12-07T05:27:19;19.95;;;13.18;;
39676;SDS011;27789;50.840;4.386;2022-12-07T05:29:45;22.25;;;12.82;;
39676;SDS011;27789;50.840;4.386;2022-12-07T05:32:11;28.70;;;13.32;;
39676;SDS011;27789;50.840;4.386;2022-12-07T05:34:36;21.08;;;13.35;;
39676;SDS011;27789;50.840;4.386;2022-12-07T05:37:02;20.35;;;13.80;;
39676;SDS011;27789;50.840;4.386;2022-12-07T05:39:27;17.60;;;12.60;;
39676;SDS011;27789;50.840;4.386;2022-12-07T05:41:53;22.10;;;12.05;;
39676;SDS011;27789;50.840;4.386;2022-12-07T05:44:30;25.30;;;13.48;;
39676;SDS011;27789;50.840;4.386;2022-12-07T05:46:55;20.05;;;12.23;;
39676;SDS011;27789;50.840;4.386;2022-12-07T05:49:21;18.98;;;12.35;;
39676;SDS011;27789;50.840;4.386;2022-12-07T05:51:47;28.30;;;14.10;;
39676;SDS011;27789;50.840;4.386;2022-12-07T05:54:13;22.70;;;12.13;;
39676;SDS011;27789;50.840;4.386;2022-12-07T05:56:38;17.67;;;11.90;;
39676;SDS011;27789;50.840;4.386;2022-12-07T05:59:04;19.77;;;13.18;;
39676;SDS011;27789;50.840;4.386;2022-12-07T06:01:40;22.05;;;12.07;;
39676;SDS011;27789;50.840;4.386;2022-12-07T06:04:06;21.92;;;12.57;;
39676;SDS011;27789;50.840;4.386;2022-12-07T06:06:32;24.15;;;11.82;;
39676;SDS011;27789;50.840;4.386;2022-12-07T06:08:57;17.00;;;12.27;;
39676;SDS011;27789;50.840;4.386;2022-12-07T06:11:23;22.23;;;12.75;;
39676;SDS011;27789;50.840;4.386;2022-12-07T06:14:00;17.23;;;11.40;;
39676;SDS011;27789;50.840;4.386;2022-12-07T06:16:25;19.25;;;11.35;;
39676;SDS011;27789;50.840;4.386;2022-12-07T06:18:51;15.07;;;10.38;;
39676;SDS011;27789;50.840;4.386;2022-12-07T06:21:17;17.58;;;11.98;;
39676;SDS011;27789;50.840;4.386;2022-12-07T06:23:42;20.00;;;11.30;;
39676;SDS011;27789;50.840;4.386;2022-12-07T06:26:08;16.65;;;10.68;;
39676;SDS011;27789;50.840;4.386;2022-12-07T06:28:33;19.50;;;10.07;;
39676;SDS011;27789;50.840;4.386;2022-12-07T06:31:00;17.63;;;11.30;;
39676;SDS011;27789;50.840;4.386;2022-12-07T06:33:27;20.25;;;11.85;;
39676;SDS011;27789;50.840;4.386;2022-12-07T06:35:53;20.15;;;11.55;;
39676;SDS011;27789;50.840;4.386;2022-12-07T06:38:19;23.30;;;11.43;;
39676;SDS011;27789;50.840;4.386;2022-12-07T06:40:44;23.85;;;11.88;;
39676;SDS011;27789;50.840;4.386;2022-12-07T06:43:10;17.35;;;10.60;;
39676;SDS011;27789;50.840;4.386;2022-12-07T06:45:36;17.92;;;10.35;;
39676;SDS011;27789;50.840;4.386;2022-12-07T06:48:01;16.17;;;10.35;;
39676;SDS011;27789;50.840;4.386;2022-12-07T06:50:27;13.40;;;9.77;;
39676;SDS011;27789;50.840;4.386;2022-12-07T06:52:53;19.00;;;10.55;;
39676;SDS011;27789;50.840;4.386;2022-12-07T06:55:18;12.80;;;9.63;;
39676;SDS011;27789;50.840;4.386;2022-12-07T06:57:44;16.42;;;9.25;;
39676;SDS011;27789;50.840;4.386;2022-12-07T07:00:10;13.32;;;8.95;;
39676;SDS011;27789;50.840;4.386;2022-12-07T07:02:36;19.48;;;9.55;;
39676;SDS011;27789;50.840;4.386;2022-12-07T07:05:02;15.65;;;9.50;;
39676;SDS011;27789;50.840;4.386;2022-12-07T07:07:28;15.05;;;9.75;;
39676;SDS011;27789;50.840;4.386;2022-12-07T07:09:54;21.55;;;10.23;;
39676;SDS011;27789;50.840;4.386;2022-12-07T07:12:19;14.45;;;9.15;;
39676;SDS011;27789;50.840;4.386;2022-12-07T07:14:45;19.52;;;9.95;;
39676;SDS011;27789;50.840;4.386;2022-12-07T07:17:11;18.63;;;8.52;;
39676;SDS011;27789;50.840;4.386;2022-12-07T07:19:36;13.55;;;8.18;;
39676;SDS011;27789;50.840;4.386;2022-12-07T07:22:03;20.27;;;8.52;;
39676;SDS011;27789;50.840;4.386;2022-12-07T07:24:29;17.58;;;9.20;;
39676;SDS011;27789;50.840;4.386;2022-12-07T07:26:54;20.17;;;10.30;;
39676;SDS011;27789;50.840;4.386;2022-12-07T07:29:20;21.80;;;9.75;;
39676;SDS011;27789;50.840;4.386;2022-12-07T07:31:46;16.00;;;8.95;;
39676;SDS011;27789;50.840;4.386;2022-12-07T07:34:11;15.70;;;10.02;;
39676;SDS011;27789;50.840;4.386;2022-12-07T07:36:37;19.15;;;10.15;;
39676;SDS011;27789;50.840;4.386;2022-12-07T07:39:03;19.73;;;11.02;;
39676;SDS011;27789;50.840;4.386;2022-12-07T07:41:30;18.60;;;11.57;;
39676;SDS011;27789;50.840;4.386;2022-12-07T07:43:55;21.45;;;11.38;;
39676;SDS011;27789;50.840;4.386;2022-12-07T07:46:21;20.10;;;11.57;;
39676;SDS011;27789;50.840;4.386;2022-12-07T07:48:47;16.15;;;11.13;;
39676;SDS011;27789;50.840;4.386;2022-12-07T07:51:12;17.92;;;10.88;;
39676;SDS011;27789;50.840;4.386;2022-12-07T07:53:38;16.73;;;10.48;;
39676;SDS011;27789;50.840;4.386;2022-12-07T07:56:04;20.20;;;10.38;;
39676;SDS011;27789;50.840;4.386;2022-12-07T07:58:29;18.98;;;11.75;;
39676;SDS011;27789;50.840;4.386;2022-12-07T08:00:55;20.63;;;11.35;;
39676;SDS011;27789;50.840;4.386;2022-12-07T08:03:21;20.20;;;11.30;;
39676;SDS011;27789;50.840;4.386;2022-12-07T08:05:46;19.17;;;10.93;;
39676;SDS011;27789;50.840;4.386;2022-12-07T08:08:12;25.05;;;11.70;;
39676;SDS011;27789;50.840;4.386;2022-12-07T08:10:38;17.92;;;10.55;;
39676;SDS011;27789;50.840;4.386;2022-12-07T08:13:04;19.42;;;10.23;;
39676;SDS011;27789;50.840;4.386;2022-12-07T08:15:36;19.02;;;10.98;;
39676;SDS011;27789;50.840;4.386;2022-12-07T08:18:03;20.30;;;10.50;;
39676;SDS011;27789;50.840;4.386;2022-12-07T08:20:30;17.40;;;10.75;;
39676;SDS011;27789;50.840;4.386;2022-12-07T08:22:56;16.35;;;9.23;;
39676;SDS011;27789;50.840;4.386;2022-12-07T08:25:22;15.80;;;10.23;;
39676;SDS011;27789;50.840;4.386;2022-12-07T08:27:48;14.15;;;10.10;;
39676;SDS011;27789;50.840;4.386;2022-12-07T08:30:14;13.70;;;9.52;;
39676;SDS011;27789;50.840;4.386;2022-12-07T08:32:39;15.48;;;10.07;;
39676;SDS011;27789;50.840;4.386;2022-12-07T08:35:12;20.67;;;10.55;;
39676;SDS011;27789;50.840;4.386;2022-12-07T08:37:38;19.83;;;11.43;;
39676;SDS011;27789;50.840;4.386;2022-12-07T08:40:08;16.67;;;10.45;;
39676;SDS011;27789;50.840;4.386;2022-12-07T08:42:35;18.15;;;11.13;;
39676;SDS011;27789;50.840;4.386;2022-12-07T08:45:08;17.88;;;10.57;;
39676;SDS011;27789;50.840;4.386;2022-12-07T08:47:37;22.98;;;11.32;;
39676;SDS011;27789;50.840;4.386;2022-12-07T08:50:09;18.50;;;10.90;;
39676;SDS011;27789;50.840;4.386;2022-12-07T08:52:37;19.75;;;11.77;;
39676;SDS011;27789;50.840;4.386;2022-12-07T08:55:05;16.23;;;9.18;;
39676;SDS011;27789;50.840;4.386;2022-12-07T08:57:31;20.67;;;10.40;;
39676;SDS011;27789;50.840;4.386;2022-12-07T08:59:59;18.38;;;10.13;;
39676;SDS011;27789;50.840;4.386;2022-12-07T09:02:25;22.08;;;9.82;;
39676;SDS011;27789;50.840;4.386;2022-12-07T09:04:51;16.23;;;10.32;;
39676;SDS011;27789;50.840;4.386;2022-12-07T09:07:17;26.50;;;9.68;;
39676;SDS011;27789;50.840;4.386;2022-12-07T09:09:42;23.83;;;9.15;;
39676;SDS011;27789;50.840;4.386;2022-12-07T09:12:08;17.58;;;9.38;;
39676;SDS011;27789;50.840;4.386;2022-12-07T09:14:35;20.38;;;8.82;;
39676;SDS011;27789;50.840;4.386;2022-12-07T09:17:05;16.98;;;9.40;;
39676;SDS011;27789;50.840;4.386;2022-12-07T09:19:32;11.52;;;7.93;;
39676;SDS011;27789;50.840;4.386;2022-12-07T09:21:57;21.75;;;8.50;;
39676;SDS011;27789;50.840;4.386;2022-12-07T09:24:23;13.65;;;8.95;;
39676;SDS011;27789;50.840;4.386;2022-12-07T09:26:48;19.02;;;9.68;;
39676;SDS011;27789;50.840;4.386;2022-12-07T09:29:14;19.25;;;9.70;;
39676;SDS011;27789;50.840;4.386;2022-12-07T09:31:40;23.33;;;8.88;;
39676;SDS011;27789;50.840;4.386;2022-12-07T09:34:06;20.67;;;9.63;;
39676;SDS011;27789;50.840;4.386;2022-12-07T09:36:32;10.80;;;8.10;;
39676;SDS011;27789;50.840;4.386;2022-12-07T09:38:57;16.20;;;9.48;;
39676;SDS011;27789;50.840;4.386;2022-12-07T09:41:23;14.65;;;9.38;;
39676;SDS011;27789;50.840;4.386;2022-12-07T09:43:52;12.13;;;8.27;;
39676;SDS011;27789;50.840;4.386;2022-12-07T09:46:22;15.80;;;10.27;;
39676;SDS011;27789;50.840;4.386;2022-12-07T09:48:49;13.68;;;9.18;;
39676;SDS011;27789;50.840;4.386;2022-12-07T09:51:17;18.90;;;9.73;;
39676;SDS011;27789;50.840;4.386;2022-12-07T09:53:48;17.38;;;8.98;;
39676;SDS011;27789;50.840;4.386;2022-12-07T09:56:14;22.80;;;9.45;;
39676;SDS011;27789;50.840;4.386;2022-12-07T09:58:41;19.70;;;10.00;;
39676;SDS011;27789;50.840;4.386;2022-12-07T10:03:35;17.15;;;9.90;;
39676;SDS011;27789;50.840;4.386;2022-12-07T10:06:03;16.27;;;9.55;;
39676;SDS011;27789;50.840;4.386;2022-12-07T10:08:30;16.88;;;9.15;;
39676;SDS011;27789;50.840;4.386;2022-12-07T10:10:56;17.38;;;10.85;;
39676;SDS011;27789;50.840;4.386;2022-12-07T10:13:45;17.13;;;10.88;;
39676;SDS011;27789;50.840;4.386;2022-12-07T10:18:53;18.27;;;10.20;;
39676;SDS011;27789;50.840;4.386;2022-12-07T10:21:20;13.43;;;8.10;;
39676;SDS011;27789;50.840;4.386;2022-12-07T10:31:42;17.23;;;9.13;;
39676;SDS011;27789;50.840;4.386;2022-12-07T10:34:43;17.98;;;11.25;;
39676;SDS011;27789;50.840;4.386;2022-12-07T10:39:55;19.42;;;8.80;;
39676;SDS011;27789;50.840;4.386;2022-12-07T10:42:22;16.73;;;10.07;;
39676;SDS011;27789;50.840;4.386;2022-12-07T11:14:19;13.30;;;7.03;;
39676;SDS011;27789;50.840;4.386;2022-12-07T11:16:55;14.88;;;8.02;;
39676;SDS011;27789;50.840;4.386;2022-12-07T11:22:16;14.80;;;7.60;;
39676;SDS011;27789;50.840;4.386;2022-12-07T11:27:41;11.43;;;6.25;;
39676;SDS011;27789;50.840;4.386;2022-12-07T11:30:22;17.98;;;7.22;;
39676;SDS011;27789;50.840;4.386;2022-12-07T11:35:48;13.00;;;6.22;;
39676;SDS011;27789;50.840;4.386;2022-12-07T11:38:22;16.50;;;5.88;;
39676;SDS011;27789;50.840;4.386;2022-12-07T11:41:02;13.15;;;5.82;;
39676;SDS011;27789;50.840;4.386;2022-12-07T11:43:50;11.80;;;5.70;;
39676;SDS011;27789;50.840;4.386;2022-12-07T11:49:12;15.73;;;5.72;;
39676;SDS011;27789;50.840;4.386;2022-12-07T11:51:51;12.75;;;5.13;;
39676;SDS011;27789;50.840;4.386;2022-12-07T11:54:25;10.65;;;5.07;;
39676;SDS011;27789;50.840;4.386;2022-12-07T11:56:55;12.02;;;4.85;;
39676;SDS011;27789;50.840;4.386;2022-12-07T11:59:30;8.27;;;3.97;;
39676;SDS011;27789;50.840;4.386;2022-12-07T12:07:23;11.57;;;4.80;;
39676;SDS011;27789;50.840;4.386;2022-12-07T12:20:37;12.27;;;4.00;;
39676;SDS011;27789;50.840;4.386;2022-12-07T12:23:22;9.05;;;4.22;;
39676;SDS011;27789;50.840;4.386;2022-12-07T12:25:52;11.98;;;4.22;;
39676;SDS011;27789;50.840;4.386;2022-12-07T12:31:13;10.13;;;5.25;;
39676;SDS011;27789;50.840;4.386;2022-12-07T12:33:48;10.75;;;4.80;;
39676;SDS011;27789;50.840;4.386;2022-12-07T12:36:20;8.05;;;3.88;;
39676;SDS011;27789;50.840;4.386;2022-12-07T12:54:35;6.43;;;2.97;;
39676;SDS011;27789;50.840;4.386;2022-12-07T12:57:06;5.13;;;2.60;;
39676;SDS011;27789;50.840;4.386;2022-12-07T12:59:38;7.90;;;2.50;;
39676;SDS011;27789;50.840;4.386;2022-12-07T13:07:13;5.80;;;2.90;;
39676;SDS011;27789;50.840;4.386;2022-12-07T13:09:59;5.75;;;3.10;;
39676;SDS011;27789;50.840;4.386;2022-12-07T13:12:26;10.65;;;2.60;;
39676;SDS011;27789;50.840;4.386;2022-12-07T13:19:55;5.95;;;3.17;;
39676;SDS011;27789;50.840;4.386;2022-12-07T13:22:40;8.95;;;2.90;;
39676;SDS011;27789;50.840;4.386;2022-12-07T13:27:54;8.50;;;3.50;;
39676;SDS011;27789;50.840;4.386;2022-12-07T13:30:23;8.65;;;2.80;;
39676;SDS011;27789;50.840;4.386;2022-12-07T13:32:53;9.43;;;3.28;;
39676;SDS011;27789;50.840;4.386;2022-12-07T13:38:03;8.90;;;4.22;;
39676;SDS011;27789;50.840;4.386;2022-12-07T13:40:31;6.05;;;2.72;;
39676;SDS011;27789;50.840;4.386;2022-12-07T13:42:58;12.32;;;3.53;;
39676;SDS011;27789;50.840;4.386;2022-12-07T13:45:26;5.85;;;3.00;;
39676;SDS011;27789;50.840;4.386;2022-12-07T13:48:03;12.77;;;3.10;;
39676;SDS011;27789;50.840;4.386;2022-12-07T13:50:31;10.05;;;2.92;;
39676;SDS011;27789;50.840;4.386;2022-12-07T13:52:57;10.60;;;3.50;;
39676;SDS011;27789;50.840;4.386;2022-12-07T13:55:24;10.93;;;4.13;;
39676;SDS011;27789;50.840;4.386;2022-12-07T13:57:52;7.68;;;3.33;;
39676;SDS011;27789;50.840;4.386;2022-12-07T14:00:27;10.60;;;4.57;;
39676;SDS011;27789;50.840;4.386;2022-12-07T14:05:31;8.35;;;3.10;;
39676;SDS011;27789;50.840;4.386;2022-12-07T14:08:00;7.07;;;3.13;;
39676;SDS011;27789;50.840;4.386;2022-12-07T14:10:28;9.52;;;2.85;;
39676;SDS011;27789;50.840;4.386;2022-12-07T14:12:58;5.35;;;3.17;;
39676;SDS011;27789;50.840;4.386;2022-12-07T14:15:27;7.07;;;3.67;;
39676;SDS011;27789;50.840;4.386;2022-12-07T14:17:56;9.93;;;2.67;;
39676;SDS011;27789;50.840;4.386;2022-12-07T14:20:32;7.05;;;2.17;;
39676;SDS011;27789;50.840;4.386;2022-12-07T14:22:59;4.25;;;2.22;;
39676;SDS011;27789;50.840;4.386;2022-12-07T14:25:43;13.30;;;2.72;;
39676;SDS011;27789;50.840;4.386;2022-12-07T14:30:54;5.57;;;2.53;;
39676;SDS011;27789;50.840;4.386;2022-12-07T14:33:19;8.05;;;3.15;;
39676;SDS011;27789;50.840;4.386;2022-12-07T14:35:46;4.55;;;3.05;;
39676;SDS011;27789;50.840;4.386;2022-12-07T14:38:12;5.20;;;2.53;;
39676;SDS011;27789;50.840;4.386;2022-12-07T14:40:38;5.30;;;2.08;;
39676;SDS011;27789;50.840;4.386;2022-12-07T14:43:05;6.05;;;2.70;;
39676;SDS011;27789;50.840;4.386;2022-12-07T14:45:35;6.65;;;2.60;;
39676;SDS011;27789;50.840;4.386;2022-12-07T14:48:00;4.07;;;2.28;;
39676;SDS011;27789;50.840;4.386;2022-12-07T14:50:26;6.32;;;2.03;;
39676;SDS011;27789;50.840;4.386;2022-12-07T14:52:54;6.38;;;1.90;;
39676;SDS011;27789;50.840;4.386;2022-12-07T14:55:24;7.00;;;2.20;;
39676;SDS011;27789;50.840;4.386;2022-12-07T14:57:50;3.22;;;2.08;;
39676;SDS011;27789;50.840;4.386;2022-12-07T15:00:16;10.82;;;2.50;;
39676;SDS011;27789;50.840;4.386;2022-12-07T15:02:46;5.15;;;2.40;;
39676;SDS011;27789;50.840;4.386;2022-12-07T15:05:13;3.13;;;2.10;;
39676;SDS011;27789;50.840;4.386;2022-12-07T15:07:39;6.88;;;2.20;;
39676;SDS011;27789;50.840;4.386;2022-12-07T15:10:05;3.92;;;1.85;;
39676;SDS011;27789;50.840;4.386;2022-12-07T15:12:37;7.88;;;2.30;;
39676;SDS011;27789;50.840;4.386;2022-12-07T15:15:03;9.55;;;2.35;;
39676;SDS011;27789;50.840;4.386;2022-12-07T15:17:29;6.38;;;1.77;;
39676;SDS011;27789;50.840;4.386;2022-12-07T15:19:55;2.28;;;1.73;;
39676;SDS011;27789;50.840;4.386;2022-12-07T15:22:20;5.05;;;2.40;;
39676;SDS011;27789;50.840;4.386;2022-12-07T15:24:46;5.13;;;1.92;;
39676;SDS011;27789;50.840;4.386;2022-12-07T15:27:12;6.45;;;2.05;;
39676;SDS011;27789;50.840;4.386;2022-12-07T15:29:37;9.63;;;2.78;;
39676;SDS011;27789;50.840;4.386;2022-12-07T15:32:03;5.05;;;2.42;;
39676;SDS011;27789;50.840;4.386;2022-12-07T15:34:28;10.73;;;2.58;;
39676;SDS011;27789;50.840;4.386;2022-12-07T15:36:55;6.30;;;2.58;;
39676;SDS011;27789;50.840;4.386;2022-12-07T15:39:21;11.15;;;3.03;;
39676;SDS011;27789;50.840;4.386;2022-12-07T15:41:47;9.50;;;2.55;;
39676;SDS011;27789;50.840;4.386;2022-12-07T15:44:12;4.78;;;2.55;;
39676;SDS011;27789;50.840;4.386;2022-12-07T15:46:50;4.38;;;2.38;;
39676;SDS011;27789;50.840;4.386;2022-12-07T15:49:17;7.07;;;3.00;;
39676;SDS011;27789;50.840;4.386;2022-12-07T15:51:44;9.48;;;3.03;;
39676;SDS011;27789;50.840;4.386;2022-12-07T15:56:48;4.80;;;3.13;;
39676;SDS011;27789;50.840;4.386;2022-12-07T15:59:14;8.00;;;3.88;;
39676;SDS011;27789;50.840;4.386;2022-12-07T16:01:40;7.10;;;4.10;;
39676;SDS011;27789;50.840;4.386;2022-12-07T16:04:06;8.52;;;4.07;;
39676;SDS011;27789;50.840;4.386;2022-12-07T16:06:31;5.78;;;4.13;;
39676;SDS011;27789;50.840;4.386;2022-12-07T16:08:57;6.78;;;4.22;;
39676;SDS011;27789;50.840;4.386;2022-12-07T16:11:23;9.65;;;4.55;;
39676;SDS011;27789;50.840;4.386;2022-12-07T16:13:48;6.22;;;4.13;;
39676;SDS011;27789;50.840;4.386;2022-12-07T16:16:15;13.15;;;5.20;;
39676;SDS011;27789;50.840;4.386;2022-12-07T16:18:42;10.15;;;5.15;;
39676;SDS011;27789;50.840;4.386;2022-12-07T16:21:09;7.47;;;4.80;;
39676;SDS011;27789;50.840;4.386;2022-12-07T16:23:34;8.27;;;4.80;;
39676;SDS011;27789;50.840;4.386;2022-12-07T16:26:07;9.40;;;4.50;;
39676;SDS011;27789;50.840;4.386;2022-12-07T16:28:37;12.90;;;5.05;;
39676;SDS011;27789;50.840;4.386;2022-12-07T16:31:07;7.35;;;4.25;;
39676;SDS011;27789;50.840;4.386;2022-12-07T16:33:36;5.57;;;4.07;;
39676;SDS011;27789;50.840;4.386;2022-12-07T16:36:02;12.65;;;5.13;;
39676;SDS011;27789;50.840;4.386;2022-12-07T16:38:29;10.43;;;5.30;;
39676;SDS011;27789;50.840;4.386;2022-12-07T16:40:55;10.30;;;6.25;;
39676;SDS011;27789;50.840;4.386;2022-12-07T16:43:20;7.93;;;4.57;;
39676;SDS011;27789;50.840;4.386;2022-12-07T16:45:46;8.23;;;5.60;;
39676;SDS011;27789;50.840;4.386;2022-12-07T16:48:13;8.68;;;4.72;;
39676;SDS011;27789;50.840;4.386;2022-12-07T16:50:39;8.55;;;4.63;;
39676;SDS011;27789;50.840;4.386;2022-12-07T16:53:07;7.90;;;4.85;;
39676;SDS011;27789;50.840;4.386;2022-12-07T16:55:40;6.28;;;4.85;;
39676;SDS011;27789;50.840;4.386;2022-12-07T16:58:08;9.93;;;4.32;;
39676;SDS011;27789;50.840;4.386;2022-12-07T17:00:34;12.13;;;5.10;;
39676;SDS011;27789;50.840;4.386;2022-12-07T17:02:59;9.02;;;5.55;;
39676;SDS011;27789;50.840;4.386;2022-12-07T17:05:25;9.32;;;4.95;;
39676;SDS011;27789;50.840;4.386;2022-12-07T17:07:53;7.05;;;4.63;;
39676;SDS011;27789;50.840;4.386;2022-12-07T17:10:19;11.13;;;4.80;;
39676;SDS011;27789;50.840;4.386;2022-12-07T17:12:45;5.53;;;4.10;;
39676;SDS011;27789;50.840;4.386;2022-12-07T17:15:10;7.68;;;4.70;;